createdAt,value
2022-11-06T00:01:34.272Z,7.70
2022-11-06T00:04:35.925Z,7.27
2022-11-06T00:07:37.544Z,6.67
2022-11-06T00:10:39.332Z,6.50
2022-11-06T00:13:44.789Z,8.20
2022-11-06T00:16:47.396Z,11.10
2022-11-06T00:19:51.042Z,6.83
2022-11-06T00:22:52.643Z,6.37
2022-11-06T00:25:56.439Z,7.97
2022-11-06T00:29:00.069Z,6.20
2022-11-06T00:32:01.671Z,8.13
2022-11-06T00:35:03.688Z,7.23
2022-11-06T00:38:05.808Z,10.40
2022-11-06T00:41:15.308Z,7.33
2022-11-06T00:44:18.961Z,8.63
2022-11-06T00:47:20.875Z,7.10
2022-11-06T00:50:26.226Z,8.47
2022-11-06T00:53:27.849Z,6.80
2022-11-06T00:56:30.767Z,7.10
2022-11-06T00:59:32.426Z,7.57
2022-11-06T01:02:34.230Z,8.40
2022-11-06T01:05:36.155Z,5.93
2022-11-06T01:08:41.498Z,6.23
2022-11-06T01:15:11.090Z,8.43
2022-11-06T01:18:12.887Z,9.47
2022-11-06T01:21:21.826Z,8.77
2022-11-06T01:24:27.005Z,6.30
2022-11-06T01:27:28.754Z,7.67
2022-11-06T01:30:43.365Z,9.50
2022-11-06T01:33:45.821Z,9.20
2022-11-06T01:36:47.639Z,9.10
2022-11-06T01:39:50.638Z,7.33
2022-11-06T01:42:52.239Z,6.97
2022-11-06T01:45:55.530Z,6.40
2022-11-06T01:49:15.461Z,8.47
2022-11-06T01:52:19.263Z,7.47
2022-11-06T01:55:35.593Z,5.87
2022-11-06T01:58:41.045Z,9.97
2022-11-06T02:01:42.947Z,7.40
2022-11-06T02:04:48.114Z,6.13
2022-11-06T02:07:52.886Z,8.80
2022-11-06T02:10:54.673Z,6.03
2022-11-06T02:14:34.559Z,7.10
2022-11-06T02:17:45.382Z,8.13
2022-11-06T02:21:12.392Z,7.83
2022-11-06T02:24:47.446Z,10.27
2022-11-06T02:27:57.600Z,6.00
2022-11-06T02:31:05.123Z,7.90
2022-11-06T02:34:11.757Z,7.40
2022-11-06T02:37:26.501Z,6.00
2022-11-06T02:40:35.175Z,6.50
2022-11-06T02:43:46.034Z,7.63
2022-11-06T02:46:57.551Z,5.10
2022-11-06T02:50:06.625Z,8.00
2022-11-06T02:53:10.274Z,7.13
2022-11-06T02:56:16.463Z,9.43
2022-11-06T02:59:26.613Z,5.77
2022-11-06T03:02:33.857Z,7.73
2022-11-06T03:05:37.617Z,8.67
2022-11-06T03:09:18.601Z,6.30
2022-11-06T03:12:36.772Z,5.17
2022-11-06T03:16:05.114Z,8.20
2022-11-06T03:19:29.587Z,7.60
2022-11-06T03:22:57.163Z,11.30
2022-11-06T03:26:20.700Z,8.37
2022-11-06T03:29:36.522Z,10.07
2022-11-06T03:32:46.703Z,7.77
2022-11-06T03:35:52.948Z,6.83
2022-11-06T03:39:01.261Z,9.53
2022-11-06T03:42:10.835Z,9.53
2022-11-06T03:45:18.662Z,6.70
2022-11-06T03:48:23.427Z,9.27
2022-11-06T03:51:33.926Z,8.63
2022-11-06T03:54:49.702Z,7.83
2022-11-06T03:57:56.200Z,7.10
2022-11-06T04:01:03.204Z,10.00
2022-11-06T04:04:12.765Z,6.20
2022-11-06T04:07:19.712Z,7.33
2022-11-06T04:10:39.945Z,9.30
2022-11-06T04:13:57.465Z,8.47
2022-11-06T04:17:03.835Z,8.00
2022-11-06T04:20:10.581Z,8.13
2022-11-06T04:23:37.784Z,9.10
2022-11-06T04:27:07.491Z,8.50
2022-11-06T04:30:11.671Z,9.50
2022-11-06T04:33:16.775Z,8.30
2022-11-06T04:37:01.496Z,8.33
2022-11-06T04:40:08.880Z,8.83
2022-11-06T04:43:19.032Z,6.80
2022-11-06T04:46:25.474Z,13.10
2022-11-06T04:49:30.919Z,9.60
2022-11-06T04:52:33.689Z,8.03
2022-11-06T04:55:46.288Z,7.97
2022-11-06T04:58:47.902Z,7.17
2022-11-06T05:01:49.610Z,10.57
2022-11-06T05:04:51.329Z,7.67
2022-11-06T05:07:52.960Z,11.13
2022-11-06T05:10:54.756Z,7.30
2022-11-06T05:13:56.411Z,7.60
2022-11-06T05:16:58.324Z,8.20
2022-11-06T05:19:59.965Z,10.07
2022-11-06T05:23:08.701Z,7.40
2022-11-06T05:26:10.318Z,10.37
2022-11-06T05:29:13.013Z,8.57
2022-11-06T05:32:14.646Z,7.03
2022-11-06T05:35:17.286Z,7.13
2022-11-06T05:38:18.907Z,7.60
2022-11-06T05:41:20.623Z,9.07
2022-11-06T05:44:22.216Z,7.57
2022-11-06T05:47:23.815Z,8.13
2022-11-06T05:50:28.648Z,6.67
2022-11-06T05:53:32.094Z,7.33
2022-11-06T05:56:33.825Z,12.17
2022-11-06T05:59:37.627Z,6.53
2022-11-06T06:02:39.644Z,7.57
2022-11-06T06:05:41.362Z,8.30
2022-11-06T06:08:45.057Z,8.27
2022-11-06T06:11:46.658Z,7.47
2022-11-06T06:14:50.503Z,8.67
2022-11-06T06:17:52.327Z,5.73
2022-11-06T06:20:54.044Z,7.47
2022-11-06T06:23:55.702Z,5.77
2022-11-06T06:26:57.293Z,7.87
2022-11-06T06:29:59.103Z,8.40
2022-11-06T06:33:05.369Z,8.07
2022-11-06T06:36:07.514Z,5.67
2022-11-06T06:39:09.131Z,8.77
2022-11-06T06:42:19.441Z,6.93
2022-11-06T06:45:24.522Z,6.10
2022-11-06T06:48:26.646Z,4.03
2022-11-06T06:51:28.291Z,6.50
2022-11-06T06:54:29.975Z,5.37
2022-11-06T06:57:31.693Z,5.40
2022-11-06T07:00:33.410Z,4.17
2022-11-06T07:03:35.029Z,4.77
2022-11-06T07:06:36.679Z,12.07
2022-11-06T07:09:38.444Z,4.80
2022-11-06T07:12:40.076Z,6.37
2022-11-06T07:15:41.801Z,3.90
2022-11-06T07:18:43.450Z,6.77
2022-11-06T07:21:45.072Z,6.10
2022-11-06T07:24:46.750Z,7.17
2022-11-06T07:27:48.369Z,6.57
2022-11-06T07:30:49.997Z,7.37
2022-11-06T07:33:51.773Z,6.43
2022-11-06T07:36:53.405Z,7.43
2022-11-06T07:39:55.034Z,5.40
2022-11-06T07:43:11.848Z,4.23
2022-11-06T07:46:15.832Z,5.10
2022-11-06T07:49:17.631Z,4.67
2022-11-06T07:52:19.331Z,9.73
2022-11-06T07:55:21.383Z,5.33
2022-11-06T07:58:26.197Z,6.57
2022-11-06T08:01:27.968Z,5.37
2022-11-06T08:04:34.794Z,5.17
2022-11-06T08:07:36.733Z,6.17
2022-11-06T08:10:43.583Z,5.43
2022-11-06T08:13:45.356Z,6.83
2022-11-06T08:16:46.925Z,4.87
2022-11-06T08:19:48.517Z,5.27
2022-11-06T08:22:50.173Z,5.57
2022-11-06T08:25:56.834Z,6.13
2022-11-06T08:28:58.485Z,4.93
2022-11-06T08:32:00.074Z,5.10
2022-11-06T08:35:01.709Z,5.73
2022-11-06T08:38:04.078Z,4.43
2022-11-06T08:41:08.248Z,5.13
2022-11-06T08:44:09.965Z,6.00
2022-11-06T08:47:11.587Z,6.33
2022-11-06T08:50:13.182Z,5.00
2022-11-06T08:53:15.245Z,5.53
2022-11-06T08:56:17.364Z,3.67
2022-11-06T08:59:21.166Z,5.77
2022-11-06T09:02:22.959Z,5.00
2022-11-06T09:05:25.047Z,5.37
2022-11-06T09:08:26.795Z,7.60
2022-11-06T09:11:28.599Z,4.07
2022-11-06T09:14:30.264Z,3.60
2022-11-06T09:17:31.874Z,4.10
2022-11-06T09:20:33.787Z,5.33
2022-11-06T09:23:35.597Z,4.20
2022-11-06T09:26:37.252Z,5.13
2022-11-06T09:29:40.776Z,5.20
2022-11-06T09:32:52.887Z,4.57
2022-11-06T09:35:54.556Z,6.37
2022-11-06T09:38:56.754Z,5.73
2022-11-06T09:42:01.888Z,4.93
2022-11-06T09:45:11.798Z,3.33
2022-11-06T09:48:22.339Z,4.73
2022-11-06T09:51:31.631Z,4.00
2022-11-06T09:54:56.260Z,4.80
2022-11-06T09:58:16.220Z,5.10
2022-11-06T10:01:27.245Z,4.67
2022-11-06T10:05:01.474Z,5.40
2022-11-06T10:08:07.139Z,4.70
2022-11-06T10:11:14.742Z,4.43
2022-11-06T10:14:57.903Z,4.90
2022-11-06T10:18:11.325Z,3.17
2022-11-06T10:21:24.647Z,4.57
2022-11-06T10:24:38.052Z,4.47
2022-11-06T10:27:56.208Z,2.87
2022-11-06T10:31:06.196Z,2.90
2022-11-06T10:34:13.114Z,4.43
2022-11-06T10:37:28.732Z,4.40
2022-11-06T10:40:35.363Z,4.37
2022-11-06T10:43:52.337Z,2.60
2022-11-06T10:47:05.847Z,2.17
2022-11-06T10:50:13.224Z,6.90
2022-11-06T10:53:29.525Z,1.93
2022-11-06T10:56:59.420Z,5.00
2022-11-06T11:00:01.069Z,1.73
2022-11-06T11:03:06.624Z,3.00
2022-11-06T11:06:08.862Z,4.13
2022-11-06T11:09:33.570Z,3.20
2022-11-06T11:12:35.287Z,7.77
2022-11-06T11:15:45.444Z,2.60
2022-11-06T11:18:47.567Z,6.73
2022-11-06T11:21:54.894Z,3.50
2022-11-06T11:25:06.266Z,2.67
2022-11-06T11:28:21.098Z,3.07
2022-11-06T11:31:30.423Z,3.17
2022-11-06T11:34:57.077Z,2.93
2022-11-06T11:38:10.715Z,3.33
2022-11-06T11:41:22.018Z,3.57
2022-11-06T11:44:25.151Z,3.47
2022-11-06T11:47:26.771Z,3.60
2022-11-06T11:50:33.644Z,4.17
2022-11-06T11:53:38.028Z,2.83
2022-11-06T11:57:04.698Z,3.47
2022-11-06T12:00:19.384Z,2.73
2022-11-06T12:03:31.494Z,3.30
2022-11-06T12:06:33.650Z,4.20
2022-11-06T12:09:42.651Z,3.97
2022-11-06T12:12:49.753Z,3.20
2022-11-06T12:16:10.130Z,4.40
2022-11-06T12:19:12.766Z,3.33
2022-11-06T12:22:43.046Z,4.10
2022-11-06T12:25:53.733Z,1.70
2022-11-06T12:29:05.081Z,1.70
2022-11-06T12:32:29.072Z,3.13
2022-11-06T12:35:36.665Z,3.13
2022-11-06T12:38:48.849Z,2.27
2022-11-06T12:41:52.436Z,4.03
2022-11-06T12:44:54.090Z,1.87
2022-11-06T12:48:24.751Z,2.37
2022-11-06T12:51:55.908Z,5.30
2022-11-06T12:55:19.022Z,3.13
2022-11-06T12:58:55.677Z,3.07
2022-11-06T13:02:04.268Z,2.60
2022-11-06T13:05:12.345Z,2.57
2022-11-06T13:08:44.609Z,2.03
2022-11-06T13:12:02.604Z,2.70
2022-11-06T13:15:27.730Z,2.07
2022-11-06T13:18:41.022Z,4.30
2022-11-06T13:21:51.748Z,3.37
2022-11-06T13:25:11.005Z,2.43
2022-11-06T13:28:33.731Z,2.97
2022-11-06T13:31:41.452Z,3.53
2022-11-06T13:34:48.142Z,2.00
2022-11-06T13:37:51.052Z,2.43
2022-11-06T13:41:02.219Z,1.63
2022-11-06T13:44:07.559Z,2.70
2022-11-06T13:47:14.265Z,1.60
2022-11-06T13:50:22.343Z,1.93
2022-11-06T13:53:44.684Z,3.40
2022-11-06T13:56:58.267Z,3.10
2022-11-06T14:00:20.594Z,1.97
2022-11-06T14:03:36.771Z,2.77
2022-11-06T14:06:40.138Z,3.70
2022-11-06T14:09:45.463Z,3.33
2022-11-06T14:12:50.853Z,5.07
2022-11-06T14:16:01.388Z,3.83
2022-11-06T14:19:06.818Z,3.93
2022-11-06T14:22:08.401Z,4.90
2022-11-06T14:25:28.316Z,5.30
2022-11-06T14:28:39.219Z,3.53
2022-11-06T14:32:31.945Z,3.83
2022-11-06T14:35:33.494Z,5.73
2022-11-06T14:38:36.337Z,3.20
2022-11-06T14:41:39.872Z,3.53
2022-11-06T14:44:45.884Z,4.83
2022-11-06T14:47:49.872Z,5.27
2022-11-06T14:50:53.606Z,3.80
2022-11-06T14:54:00.513Z,4.90
2022-11-06T14:57:02.805Z,3.50
2022-11-06T15:00:05.157Z,4.37
2022-11-06T15:03:20.699Z,5.10
2022-11-06T15:06:39.520Z,6.27
2022-11-06T15:09:45.519Z,5.10
2022-11-06T15:13:10.240Z,4.73
2022-11-06T15:16:12.756Z,3.10
2022-11-06T15:19:19.386Z,4.50
2022-11-06T15:23:02.769Z,3.70
2022-11-06T15:26:19.890Z,5.73
2022-11-06T15:29:28.302Z,3.40
2022-11-06T15:32:37.112Z,3.67
2022-11-06T15:35:39.389Z,4.73
2022-11-06T15:38:42.390Z,4.23
2022-11-06T15:41:44.495Z,4.50
2022-11-06T15:44:47.135Z,4.27
2022-11-06T15:48:00.571Z,5.03
2022-11-06T15:51:02.640Z,7.87
2022-11-06T15:54:04.437Z,5.50
2022-11-06T15:57:15.408Z,3.07
2022-11-06T16:00:24.274Z,3.37
2022-11-06T16:03:28.670Z,4.03
2022-11-06T16:06:32.243Z,4.07
2022-11-06T16:09:37.129Z,3.37
2022-11-06T16:12:38.889Z,3.40
2022-11-06T16:15:49.703Z,6.83
2022-11-06T16:18:51.454Z,3.53
2022-11-06T16:22:07.357Z,4.23
2022-11-06T16:25:18.984Z,3.30
2022-11-06T16:28:28.318Z,5.27
2022-11-06T16:31:31.273Z,3.57
2022-11-06T16:34:57.229Z,4.50
2022-11-06T16:38:45.067Z,4.20
2022-11-06T16:42:05.659Z,5.23
2022-11-06T16:45:21.545Z,3.73
2022-11-06T16:48:25.852Z,3.73
2022-11-06T16:51:32.669Z,3.10
2022-11-06T16:54:34.631Z,4.33
2022-11-06T17:06:35.295Z,3.53
2022-11-06T17:09:36.983Z,4.00
2022-11-06T17:12:38.594Z,3.60
2022-11-06T17:15:41.370Z,4.50
2022-11-06T17:18:43.096Z,3.73
2022-11-06T17:21:45.211Z,4.80
2022-11-06T17:24:50.827Z,3.83
2022-11-06T17:27:54.345Z,3.30
2022-11-06T17:30:55.983Z,3.40
2022-11-06T17:33:57.727Z,14.47
2022-11-06T17:36:59.376Z,12.27
2022-11-06T17:40:00.998Z,9.97
2022-11-06T17:43:02.703Z,5.93
2022-11-06T17:46:06.532Z,4.57
2022-11-06T17:49:12.953Z,4.60
2022-11-06T17:52:18.688Z,5.03
2022-11-06T17:55:20.554Z,4.33
2022-11-06T17:58:22.214Z,3.40
2022-11-06T18:01:24.096Z,3.73
2022-11-06T18:04:28.049Z,4.93
2022-11-06T18:07:29.903Z,3.57
2022-11-06T18:19:41.094Z,3.80
2022-11-06T18:22:42.761Z,4.63
2022-11-06T18:25:54.303Z,4.57
2022-11-06T18:28:55.940Z,4.80
2022-11-06T18:31:57.625Z,4.00
2022-11-06T18:34:59.258Z,4.43
2022-11-06T18:38:01.343Z,3.83
2022-11-06T18:41:15.038Z,4.23
2022-11-06T18:44:18.076Z,4.43
2022-11-06T18:47:20.849Z,5.97
2022-11-06T18:50:24.109Z,5.00
2022-11-06T18:53:25.762Z,4.63
2022-11-06T18:56:30.435Z,5.03
2022-11-06T18:59:32.097Z,5.07
2022-11-06T19:02:34.253Z,4.23
2022-11-06T19:05:45.987Z,4.83
2022-11-06T19:08:48.848Z,4.23
2022-11-06T19:11:54.614Z,5.13
2022-11-06T19:14:56.532Z,5.13
2022-11-06T19:17:58.193Z,6.53
2022-11-06T19:21:04.783Z,5.93
2022-11-06T19:24:06.806Z,4.73
2022-11-06T19:27:08.766Z,4.93
2022-11-06T19:30:10.819Z,5.00
2022-11-06T19:33:12.672Z,5.57
2022-11-06T19:36:14.501Z,5.30
2022-11-06T19:39:16.099Z,7.70
2022-11-06T19:42:17.666Z,5.37
2022-11-06T19:45:19.261Z,6.07
2022-11-06T19:48:40.682Z,5.67
2022-11-06T19:51:42.812Z,6.37
2022-11-06T19:54:44.487Z,6.43
2022-11-06T19:57:46.109Z,7.07
2022-11-06T20:00:50.799Z,7.27
2022-11-06T20:03:52.400Z,7.83
2022-11-06T20:06:54.116Z,6.40
2022-11-06T20:09:57.647Z,8.13
2022-11-06T20:12:59.285Z,7.23
2022-11-06T20:16:00.942Z,7.30
2022-11-06T20:19:02.611Z,7.37
2022-11-06T20:22:04.350Z,6.07
2022-11-06T20:25:06.534Z,7.50
2022-11-06T20:28:08.165Z,7.57
2022-11-06T20:31:11.554Z,6.93
2022-11-06T20:34:13.179Z,6.93
2022-11-06T20:37:14.911Z,7.37
2022-11-06T20:40:16.618Z,7.83
2022-11-06T20:43:18.260Z,7.70
2022-11-06T20:46:21.362Z,7.97
2022-11-06T20:49:23.133Z,8.80
2022-11-06T20:52:24.974Z,6.90
2022-11-06T20:55:26.713Z,7.10
2022-11-06T20:58:29.236Z,8.10
2022-11-06T21:01:31.054Z,6.87
2022-11-06T21:04:32.819Z,6.57
2022-11-06T21:07:35.221Z,7.80
2022-11-06T21:10:36.916Z,7.00
2022-11-06T21:13:43.256Z,6.27
2022-11-06T21:16:45.979Z,7.27
2022-11-06T21:19:47.679Z,7.30
2022-11-06T21:22:52.090Z,6.73
2022-11-06T21:25:53.674Z,6.00
2022-11-06T21:28:56.107Z,6.63
2022-11-06T21:31:57.822Z,7.37
2022-11-06T21:34:59.407Z,9.03
2022-11-06T21:38:01.015Z,7.83
2022-11-06T21:41:15.478Z,7.90
2022-11-06T21:44:18.340Z,6.77
2022-11-06T21:47:19.921Z,7.23
2022-11-06T21:50:29.560Z,7.67
2022-11-06T21:53:50.865Z,6.37
2022-11-06T21:56:53.432Z,6.33
2022-11-06T21:59:55.028Z,6.60
2022-11-06T22:02:59.343Z,7.40
2022-11-06T22:06:09.714Z,7.50
2022-11-06T22:09:13.025Z,6.87
2022-11-06T22:12:14.640Z,7.07
2022-11-06T22:15:16.247Z,7.53
2022-11-06T22:18:17.860Z,6.57
2022-11-06T22:21:31.437Z,7.40
2022-11-06T22:24:33.022Z,6.70
2022-11-06T22:27:39.622Z,6.37
2022-11-06T22:30:42.363Z,6.43
2022-11-06T22:33:47.940Z,6.30
2022-11-06T22:36:52.289Z,6.17
2022-11-06T22:39:53.914Z,6.60
2022-11-06T22:42:55.715Z,6.17
2022-11-06T22:46:02.514Z,6.77
2022-11-06T22:49:04.932Z,7.73
2022-11-06T22:52:06.549Z,6.70
2022-11-06T22:55:11.587Z,7.63
2022-11-06T22:58:13.214Z,6.67
2022-11-06T23:01:20.118Z,7.00
2022-11-06T23:04:21.888Z,7.13
2022-11-06T23:07:23.518Z,7.10
2022-11-06T23:10:32.587Z,7.43
2022-11-06T23:13:34.645Z,5.70
2022-11-06T23:16:55.214Z,4.37
2022-11-06T23:19:56.873Z,5.73
2022-11-06T23:23:00.288Z,6.03
2022-11-06T23:26:11.303Z,6.00
2022-11-06T23:29:13.027Z,4.67
2022-11-06T23:32:14.622Z,4.20
2022-11-06T23:35:17.254Z,4.60
2022-11-06T23:38:19.412Z,6.07
2022-11-06T23:41:39.943Z,3.90
2022-11-06T23:45:00.307Z,4.20
2022-11-06T23:48:07.423Z,4.20
2022-11-06T23:51:10.238Z,5.00
2022-11-06T23:54:11.885Z,4.53
2022-11-06T23:57:13.962Z,4.37
